Time;durP1;ratioP1;P1;durP2;ratioP2;P2;SDS_P1;SDS_P2;PMS_P1;PMS_P2;Temp;Humidity;BMP_temperature;BMP_pressure;BME280_temperature;BME280_humidity;BME280_pressure;Samples;Min_cycle;Max_cycle;Signal;HPM_P1;HPM_P2
2022/07/22 05:01:42;;;;;;;12.65;9.40;;;18.90;99.90;;;;;;5780318;23;20405;-70
2022/07/22 05:04:09;;;;;;;11.95;9.57;;;18.90;99.90;;;;;;4938475;29;20043;-69
2022/07/22 05:06:37;;;;;;;;;;;18.90;99.90;;;;;;4957585;29;20027;-69
2022/07/22 05:09:04;;;;;;;11.95;8.85;;;18.90;99.90;;;;;;4926303;29;19914;-69
2022/07/22 05:11:30;;;;;;;11.20;8.95;;;18.90;99.90;;;;;;4942106;29;20027;-69
2022/07/22 05:13:56;;;;;;;11.27;9.05;;;19.00;99.90;;;;;;4945153;29;20221;-71
2022/07/22 05:16:22;;;;;;;10.02;8.60;;;19.00;99.90;;;;;;4963677;29;20055;-68
2022/07/22 05:18:48;;;;;;;10.15;8.70;;;19.10;99.90;;;;;;4945664;29;20034;-69
2022/07/22 05:21:15;;;;;;;13.68;9.38;;;19.20;99.90;;;;;;4946412;29;20027;-67
2022/07/22 05:23:42;;;;;;;11.88;9.05;;;19.20;99.90;;;;;;4946149;29;20031;-68
2022/07/22 05:26:09;;;;;;;10.93;9.50;;;19.30;99.90;;;;;;4946480;29;20027;-68
2022/07/22 05:28:36;;;;;;;13.00;8.37;;;19.40;99.90;;;;;;4946219;29;20027;-70
2022/07/22 05:31:01;;;;;;;12.10;8.90;;;19.60;99.90;;;;;;4963150;28;20701;-68
2022/07/22 05:33:29;;;;;;;12.07;9.15;;;19.70;99.90;;;;;;4946026;29;20035;-70
2022/07/22 05:36:13;;;;;;;13.85;9.45;;;19.80;99.90;;;;;;4951576;29;20038;-69
2022/07/22 05:38:45;;;;;;;13.65;10.18;;;19.90;99.90;;;;;;4926656;29;20035;-70
2022/07/22 05:41:11;;;;;;;12.80;9.40;;;20.00;99.90;;;;;;4947736;29;20142;-74
2022/07/22 05:43:37;;;;;;;11.18;9.45;;;20.00;99.90;;;;;;4958834;29;20033;-69
2022/07/22 05:46:07;;;;;;;11.73;9.02;;;20.10;99.90;;;;;;4943036;28;20048;-69
2022/07/22 05:48:33;;;;;;;12.52;9.15;;;20.10;99.90;;;;;;4945797;29;20026;-70
2022/07/22 05:50:59;;;;;;;11.73;8.82;;;20.20;99.90;;;;;;4945368;29;20027;-69
2022/07/22 05:53:25;;;;;;;14.15;10.30;;;20.30;99.90;;;;;;4945885;29;20031;-70
2022/07/22 05:55:51;;;;;;;14.35;9.20;;;20.40;99.90;;;;;;4945320;29;20035;-69
2022/07/22 05:58:17;;;;;;;12.38;9.10;;;20.50;99.90;;;;;;4942266;29;20067;-69
2022/07/22 06:00:43;;;;;;;13.77;9.75;;;20.60;99.90;;;;;;4926085;29;20384;-68
2022/07/22 06:03:09;;;;;;;12.27;9.18;;;20.60;99.90;;;;;;4927820;29;20118;-70
2022/07/22 06:05:37;;;;;;;11.00;8.73;;;20.60;99.90;;;;;;4929190;29;20122;-70
2022/07/22 06:08:05;;;;;;;20.27;9.45;;;20.60;99.90;;;;;;4945449;29;20119;-68
2022/07/22 06:10:40;;;;;;;16.90;9.48;;;20.60;99.90;;;;;;4945845;29;20078;-68
2022/07/22 06:13:06;;;;;;;12.68;9.05;;;20.70;99.90;;;;;;4945194;29;20035;-71
2022/07/22 06:15:32;;;;;;;11.25;9.30;;;20.80;99.90;;;;;;4962198;28;20102;-69
2022/07/22 06:17:58;;;;;;;11.82;9.02;;;20.80;99.90;;;;;;4945008;29;20031;-69
2022/07/22 06:20:24;;;;;;;12.13;9.07;;;20.90;99.90;;;;;;4961257;29;20095;-69
2022/07/22 06:22:50;;;;;;;14.15;9.27;;;20.90;99.90;;;;;;4945126;29;20102;-69
2022/07/22 06:25:15;;;;;;;12.38;8.55;;;21.00;99.90;;;;;;4945402;29;20035;-71
2022/07/22 06:27:41;;;;;;;12.18;9.50;;;21.10;99.90;;;;;;4945327;29;20041;-70
2022/07/22 06:30:08;;;;;;;12.40;9.40;;;21.10;99.90;;;;;;4944366;28;20031;-71
2022/07/22 06:32:34;;;;;;;10.00;8.23;;;21.10;99.90;;;;;;4945676;29;20039;-70
2022/07/22 06:35:01;;;;;;;10.68;8.38;;;21.10;99.90;;;;;;4944884;29;20043;-74
2022/07/22 06:37:27;;;;;;;11.25;7.88;;;21.20;99.90;;;;;;4945493;29;20074;-71
2022/07/22 06:39:53;;;;;;;11.35;8.77;;;21.40;99.90;;;;;;4962269;29;20028;-72
2022/07/22 06:42:22;;;;;;;11.25;8.57;;;21.50;99.90;;;;;;4961070;29;20090;-69
2022/07/22 06:45:07;;;;;;;9.68;7.95;;;21.60;99.90;;;;;;4961465;28;20038;-72
2022/07/22 06:47:39;;;;;;;11.63;9.43;;;21.70;99.90;;;;;;4945154;29;20249;-70
2022/07/22 06:50:09;;;;;;;9.48;7.95;;;21.80;99.70;;;;;;4944552;29;20034;-71
2022/07/22 06:52:38;;;;;;;12.18;7.22;;;21.90;99.40;;;;;;4945093;29;20039;-70
2022/07/22 06:55:05;;;;;;;10.05;8.15;;;22.00;98.70;;;;;;4944737;29;20103;-71
2022/07/22 06:57:34;;;;;;;9.85;7.63;;;22.20;98.20;;;;;;4945181;29;20075;-70
2022/07/22 07:00:03;;;;;;;9.52;7.03;;;22.30;97.40;;;;;;4960391;29;20082;-69
2022/07/22 07:02:28;;;;;;;11.98;8.32;;;22.50;96.90;;;;;;4944745;29;20240;-70
2022/07/22 07:04:54;;;;;;;10.35;7.97;;;22.60;96.90;;;;;;4961713;29;20041;-70
2022/07/22 07:07:21;;;;;;;11.32;8.50;;;22.60;96.90;;;;;;4945283;29;20042;-70
2022/07/22 07:09:56;;;;;;;15.38;8.68;;;22.70;96.80;;;;;;4944682;29;20053;-69
2022/07/22 07:12:29;;;;;;;11.40;8.35;;;22.70;96.50;;;;;;4945087;29;20130;-72
2022/07/22 07:15:07;;;;;;;11.35;7.60;;;22.90;96.20;;;;;;4961410;28;20282;-71
2022/07/22 07:17:33;;;;;;;12.45;7.72;;;23.10;95.90;;;;;;4946280;29;20437;-68
2022/07/22 07:20:00;;;;;;;10.85;7.85;;;23.10;95.40;;;;;;4947862;29;20047;-70
2022/07/22 07:22:25;;;;;;;11.70;8.65;;;23.30;95.30;;;;;;4979286;28;20027;-70
2022/07/22 07:24:51;;;;;;;9.88;8.05;;;23.40;94.90;;;;;;4983146;28;20339;-70
2022/07/22 07:27:17;;;;;;;11.85;8.10;;;23.50;94.90;;;;;;4967272;28;20034;-70
2022/07/22 07:29:45;;;;;;;11.93;8.60;;;23.40;94.60;;;;;;4967249;28;20125;-70
2022/07/22 07:32:12;;;;;;;12.60;9.02;;;23.60;94.60;;;;;;4966770;28;20043;-70
2022/07/22 07:34:38;;;;;;;10.10;8.45;;;23.70;94.50;;;;;;4967115;28;20073;-70
2022/07/22 07:37:04;;;;;;;14.73;9.60;;;23.60;94.30;;;;;;4966965;28;20090;-68
2022/07/22 07:39:30;;;;;;;15.45;9.23;;;23.70;94.10;;;;;;4967187;28;20472;-70
2022/07/22 07:41:56;;;;;;;12.40;9.55;;;23.70;94.10;;;;;;4961749;29;20075;-69
2022/07/22 07:44:23;;;;;;;10.63;8.77;;;23.80;93.90;;;;;;4965059;29;20030;-69
2022/07/22 07:46:49;;;;;;;12.38;8.32;;;23.90;94.00;;;;;;4946743;29;20039;-70
2022/07/22 07:49:15;;;;;;;9.38;7.90;;;23.90;93.80;;;;;;4948062;29;20058;-70
2022/07/22 07:51:41;;;;;;;11.30;8.38;;;24.10;93.60;;;;;;4947962;29;20221;-71
2022/07/22 07:54:06;;;;;;;13.65;8.98;;;24.10;93.30;;;;;;4947355;29;20109;-70
2022/07/22 07:56:32;;;;;;;13.27;9.18;;;24.30;92.90;;;;;;4945086;29;20067;-69
2022/07/22 07:58:58;;;;;;;10.88;8.75;;;24.30;92.70;;;;;;4947200;29;20042;-69
2022/07/22 08:01:24;;;;;;;11.00;8.18;;;24.30;92.90;;;;;;4946712;29;20066;-71
2022/07/22 08:03:50;;;;;;;10.88;8.60;;;24.30;92.90;;;;;;4928184;29;20063;-72
2022/07/22 08:06:15;;;;;;;10.35;8.07;;;24.50;92.30;;;;;;4932554;29;20023;-70
2022/07/22 08:08:42;;;;;;;11.05;7.53;;;24.60;92.20;;;;;;4932276;29;20039;-70
2022/07/22 08:11:19;;;;;;;11.00;8.70;;;24.80;92.20;;;;;;4937392;29;20066;-69
2022/07/22 08:13:58;;;;;;;10.52;8.25;;;24.90;91.40;;;;;;4928278;29;20036;-69
2022/07/22 08:16:35;;;;;;;12.32;9.55;;;24.80;91.40;;;;;;4934309;29;20094;-69
2022/07/22 08:19:00;;;;;;;11.30;7.70;;;24.90;91.00;;;;;;4927862;29;20265;-70
2022/07/22 08:21:26;;;;;;;11.50;8.30;;;24.80;91.30;;;;;;4945297;29;20023;-70
2022/07/22 08:23:56;;;;;;;11.10;7.60;;;25.00;91.40;;;;;;4927540;29;20058;-69
2022/07/22 08:26:23;;;;;;;9.80;8.68;;;25.20;91.20;;;;;;4944098;29;20026;-70
2022/07/22 08:28:49;;;;;;;13.02;8.00;;;25.30;90.50;;;;;;4942251;29;20036;-69
2022/07/22 08:31:15;;;;;;;10.48;7.72;;;25.20;90.60;;;;;;4944435;29;20378;-69
2022/07/22 08:33:40;;;;;;;12.00;8.57;;;25.40;90.60;;;;;;4940289;29;20040;-71
2022/07/22 08:36:07;;;;;;;11.77;8.43;;;25.40;90.20;;;;;;4943306;29;20031;-69
2022/07/22 08:38:33;;;;;;;10.63;7.95;;;25.50;89.50;;;;;;4944049;29;20094;-70
2022/07/22 08:41:03;;;;;;;12.00;8.88;;;25.70;88.80;;;;;;4927510;29;20187;-69
2022/07/22 08:43:32;;;;;;;10.27;7.63;;;25.50;89.00;;;;;;4943576;29;20038;-70
2022/07/22 08:45:58;;;;;;;8.88;7.38;;;25.70;88.60;;;;;;4926417;29;20233;-69
2022/07/22 08:48:24;;;;;;;10.38;8.00;;;25.70;89.00;;;;;;4910572;29;20062;-70
2022/07/22 08:50:59;;;;;;;9.13;7.63;;;25.70;88.80;;;;;;4908336;29;20024;-70
2022/07/22 08:53:39;;;;;;;9.65;7.38;;;25.70;88.40;;;;;;4908422;29;20209;-70
2022/07/22 08:56:12;;;;;;;9.52;7.47;;;25.80;88.90;;;;;;4923955;29;20511;-70
2022/07/22 08:58:38;;;;;;;9.15;7.10;;;26.10;88.10;;;;;;4944264;29;20099;-69
2022/07/22 09:01:05;;;;;;;9.15;7.00;;;26.10;87.60;;;;;;4941950;29;20047;-70
2022/07/22 09:03:31;;;;;;;9.85;6.93;;;26.10;87.80;;;;;;4961421;29;20042;-71
2022/07/22 09:06:00;;;;;;;8.77;6.82;;;26.20;86.70;;;;;;4961552;29;20209;-70
2022/07/22 09:08:26;;;;;;;10.65;7.07;;;26.20;87.00;;;;;;4946254;29;20046;-70
2022/07/22 09:10:57;;;;;;;9.13;7.05;;;26.40;86.80;;;;;;4945592;29;20049;-71
2022/07/22 09:13:59;;;;;;;12.40;7.43;;;26.30;87.90;;;;;;4962474;29;20051;-71
2022/07/22 09:16:48;;;;;;;9.68;8.20;;;26.50;87.10;;;;;;4962717;28;20319;-68
2022/07/22 09:19:49;;;;;;;12.60;8.65;;;26.60;86.10;;;;;;4922924;29;20040;-71
2022/07/22 09:22:39;;;;;;;;;;;26.60;85.50;;;;;;4960461;29;20039;-70
2022/07/22 09:25:28;;;;;;;9.00;6.28;;;26.60;86.40;;;;;;4961625;29;20132;-71
2022/07/22 09:28:17;;;;;;;7.95;6.32;;;26.80;86.40;;;;;;4928094;29;20053;-72
2022/07/22 09:31:02;;;;;;;7.78;6.47;;;27.00;85.70;;;;;;4962576;28;20058;-71
2022/07/22 09:33:32;;;;;;;8.75;7.40;;;27.20;84.20;;;;;;4962068;29;20062;-70
2022/07/22 09:36:16;;;;;;;8.32;6.80;;;27.00;83.40;;;;;;4946096;29;20105;-70
2022/07/22 09:38:42;;;;;;;10.05;6.50;;;27.10;83.60;;;;;;4945973;29;20039;-69
2022/07/22 09:41:08;;;;;;;10.38;6.90;;;27.20;83.20;;;;;;4945165;29;20023;-69
2022/07/22 09:43:37;;;;;;;8.50;6.25;;;27.30;83.50;;;;;;4963111;29;20190;-71
2022/07/22 09:46:05;;;;;;;11.48;7.50;;;27.40;82.60;;;;;;4944612;29;20211;-70
2022/07/22 09:49:02;;;;;;;9.35;6.70;;;27.40;82.40;;;;;;4945451;29;20034;-71
2022/07/22 09:51:54;;;;;;;7.57;6.10;;;27.50;82.50;;;;;;4944929;29;20404;-70
2022/07/22 09:54:31;;;;;;;6.65;5.50;;;27.70;81.70;;;;;;4963103;29;20039;-70
2022/07/22 09:56:58;;;;;;;8.15;6.10;;;27.80;81.70;;;;;;4956586;29;20321;-71
2022/07/22 09:59:24;;;;;;;8.57;6.18;;;28.00;81.40;;;;;;4950737;29;20301;-71
2022/07/22 10:02:03;;;;;;;7.93;6.10;;;28.00;80.10;;;;;;4956292;29;20051;-71
2022/07/22 10:04:33;;;;;;;8.07;6.00;;;27.90;79.80;;;;;;4943276;29;20040;-70
2022/07/22 10:07:01;;;;;;;8.95;6.63;;;27.90;80.40;;;;;;4940966;29;20031;-72
2022/07/22 10:09:33;;;;;;;8.77;5.53;;;28.00;80.20;;;;;;4938676;29;20027;-74
2022/07/22 10:12:00;;;;;;;9.60;5.75;;;28.20;79.50;;;;;;4961415;29;20046;-72
2022/07/22 10:14:28;;;;;;;9.00;6.28;;;28.30;79.10;;;;;;4945266;29;20328;-70
2022/07/22 10:16:58;;;;;;;8.35;5.90;;;28.20;79.00;;;;;;4944411;29;20103;-71
2022/07/22 10:19:24;;;;;;;7.70;5.55;;;28.40;78.40;;;;;;4958430;29;20190;-73
2022/07/22 10:21:50;;;;;;;7.28;6.00;;;28.30;78.60;;;;;;4961259;29;20178;-72
2022/07/22 10:24:23;;;;;;;7.65;5.53;;;28.40;78.20;;;;;;4961878;29;20078;-71
2022/07/22 10:26:56;;;;;;;9.13;6.28;;;28.50;78.70;;;;;;4960972;29;20108;-71
2022/07/22 10:29:47;;;;;;;6.68;6.00;;;28.50;77.70;;;;;;4956863;29;20361;-71
2022/07/22 10:32:15;;;;;;;7.07;5.68;;;28.60;78.00;;;;;;4943737;29;20274;-70
2022/07/22 10:35:06;;;;;;;6.85;5.65;;;28.70;77.70;;;;;;4940216;29;20036;-71
2022/07/22 10:37:35;;;;;;;7.18;6.00;;;28.90;77.50;;;;;;4932788;29;20308;-71
2022/07/22 10:40:21;;;;;;;8.27;5.75;;;29.00;77.50;;;;;;4960873;29;20042;-71
2022/07/22 10:42:59;;;;;;;6.95;5.95;;;29.10;77.00;;;;;;4962007;29;20094;-71
2022/07/22 10:45:27;;;;;;;6.93;5.75;;;29.10;76.40;;;;;;4961954;28;20035;-72
2022/07/22 10:47:58;;;;;;;7.97;5.47;;;29.10;76.10;;;;;;4951425;29;20335;-72
2022/07/22 10:50:35;;;;;;;7.03;5.35;;;29.10;76.40;;;;;;4962513;29;20069;-71
2022/07/22 10:53:12;;;;;;;7.33;6.00;;;29.30;76.30;;;;;;4963864;28;20047;-72
2022/07/22 10:55:56;;;;;;;8.00;5.55;;;29.40;75.90;;;;;;4953980;29;20870;-70
2022/07/22 10:58:34;;;;;;;6.38;5.63;;;29.50;76.10;;;;;;4960070;29;20121;-72
2022/07/22 11:01:04;;;;;;;7.35;6.18;;;29.60;75.30;;;;;;4961583;28;20047;-72
2022/07/22 11:03:35;;;;;;;7.05;5.22;;;29.70;75.20;;;;;;4967191;29;20090;-73
2022/07/22 11:06:18;;;;;;;7.53;5.60;;;29.70;75.20;;;;;;4965701;29;20114;-71
2022/07/22 11:08:46;;;;;;;7.70;5.68;;;29.90;74.90;;;;;;4962039;29;20031;-71
2022/07/22 11:11:12;;;;;;;8.53;5.13;;;30.10;74.40;;;;;;4946598;29;20040;-71
2022/07/22 11:13:44;;;;;;;7.18;5.70;;;30.20;74.30;;;;;;4949579;29;20045;-72
2022/07/22 11:16:18;;;;;;;7.78;5.63;;;30.40;72.80;;;;;;4944912;29;20105;-74
2022/07/22 11:19:02;;;;;;;7.45;5.57;;;30.60;72.40;;;;;;4955256;29;20031;-72
2022/07/22 11:21:32;;;;;;;9.07;5.72;;;30.80;71.90;;;;;;4961776;29;20102;-72
2022/07/22 11:24:03;;;;;;;6.60;4.95;;;30.90;72.10;;;;;;4965554;29;20329;-72
2022/07/22 11:26:37;;;;;;;8.18;5.45;;;31.20;71.20;;;;;;4965324;29;20035;-72
2022/07/22 11:29:03;;;;;;;7.75;5.18;;;31.30;70.50;;;;;;4960032;29;20027;-71
2022/07/22 11:31:29;;;;;;;7.65;5.13;;;31.50;70.60;;;;;;4961768;28;20086;-71
2022/07/22 11:34:09;;;;;;;6.57;5.47;;;31.60;70.40;;;;;;4964773;29;20043;-70
2022/07/22 11:36:39;;;;;;;7.30;5.20;;;31.90;69.90;;;;;;4965074;29;20142;-69
2022/07/22 11:39:06;;;;;;;7.85;5.40;;;32.40;69.00;;;;;;4964742;29;20054;-71
2022/07/22 11:41:32;;;;;;;5.68;5.15;;;32.90;68.00;;;;;;4943212;29;20039;-70
2022/07/22 11:43:59;;;;;;;8.88;5.15;;;33.40;66.70;;;;;;4944413;29;20039;-70
2022/07/22 11:46:26;;;;;;;6.18;4.70;;;33.60;65.90;;;;;;4964111;28;20043;-73
2022/07/22 11:48:58;;;;;;;7.60;5.30;;;34.30;64.70;;;;;;4964645;29;20031;-73
2022/07/22 11:51:29;;;;;;;4.90;4.40;;;34.90;62.60;;;;;;4964273;29;20217;-72
2022/07/22 11:53:54;;;;;;;6.10;4.50;;;35.60;62.00;;;;;;4964305;29;20159;-72
2022/07/22 11:56:20;;;;;;;6.95;4.40;;;36.40;60.40;;;;;;4946868;29;20219;-71
2022/07/22 11:58:49;;;;;;;6.35;4.55;;;37.20;58.30;;;;;;4964463;29;20314;-71
2022/07/22 12:01:17;;;;;;;5.45;4.22;;;37.80;57.90;;;;;;4962899;28;20241;-72
2022/07/22 12:03:48;;;;;;;5.88;3.92;;;38.40;56.40;;;;;;4964377;28;20079;-72
2022/07/22 12:06:16;;;;;;;4.90;4.00;;;38.10;55.50;;;;;;4963842;29;20229;-72
2022/07/22 12:08:51;;;;;;;4.78;3.67;;;38.20;56.00;;;;;;4960155;29;20023;-72
2022/07/22 12:11:19;;;;;;;3.92;3.47;;;39.20;55.10;;;;;;4946356;29;20058;-73
2022/07/22 12:13:47;;;;;;;6.35;3.90;;;39.70;54.10;;;;;;4964158;29;20046;-72
2022/07/22 12:16:28;;;;;;;5.80;3.60;;;40.20;53.30;;;;;;4939306;29;20039;-72
2022/07/22 12:19:03;;;;;;;4.00;3.58;;;40.80;52.20;;;;;;4964458;29;20038;-71
2022/07/22 12:21:31;;;;;;;5.38;3.63;;;42.20;52.20;;;;;;4929853;29;20139;-72
2022/07/22 12:24:05;;;;;;;5.35;4.03;;;42.30;50.80;;;;;;4957408;29;20104;-72
2022/07/22 12:26:45;;;;;;;5.05;3.85;;;42.20;49.90;;;;;;4963010;29;20114;-73
2022/07/22 12:29:19;;;;;;;4.25;3.65;;;43.00;50.10;;;;;;4962958;29;20035;-72
2022/07/22 12:31:46;;;;;;;5.28;3.72;;;44.10;49.70;;;;;;4963265;29;20333;-71
2022/07/22 12:34:13;;;;;;;5.28;3.60;;;44.10;48.90;;;;;;4963709;29;20035;-70
2022/07/22 12:36:42;;;;;;;6.05;4.20;;;44.20;48.70;;;;;;4963826;29;20044;-72
2022/07/22 12:39:16;;;;;;;3.75;3.30;;;45.00;48.40;;;;;;4963085;29;20091;-73
2022/07/22 12:41:51;;;;;;;5.68;3.90;;;45.10;47.90;;;;;;4960683;29;20082;-72
2022/07/22 12:44:25;;;;;;;5.15;4.13;;;45.40;47.60;;;;;;4943771;29;20051;-72
2022/07/22 12:46:54;;;;;;;7.35;3.75;;;45.20;47.30;;;;;;4948251;29;20205;-72
2022/07/22 12:49:23;;;;;;;5.32;3.40;;;45.50;47.00;;;;;;4963183;29;20313;-71
2022/07/22 12:52:10;;;;;;;4.28;3.25;;;45.00;45.80;;;;;;4963377;29;20102;-74
2022/07/22 12:54:37;;;;;;;3.92;3.30;;;44.90;46.10;;;;;;4957524;29;20211;-74
2022/07/22 12:57:05;;;;;;;3.30;2.78;;;45.40;45.30;;;;;;4960263;29;20055;-75
2022/07/22 12:59:31;;;;;;;6.65;3.13;;;46.80;44.80;;;;;;4956126;29;20339;-73
2022/07/22 13:01:57;;;;;;;3.10;2.80;;;47.40;43.90;;;;;;4954213;29;20253;-73
2022/07/22 13:04:23;;;;;;;4.90;2.70;;;47.70;43.10;;;;;;4949000;29;20034;-73
2022/07/22 13:06:49;;;;;;;4.30;2.93;;;47.80;42.90;;;;;;4963337;29;20479;-74
2022/07/22 13:09:15;;;;;;;;;;;48.90;42.50;;;;;;4946972;29;20082;-73
2022/07/22 13:11:43;;;;;;;3.97;2.90;;;50.00;41.60;;;;;;4959802;29;19906;-74
2022/07/22 13:14:10;;;;;;;4.05;2.78;;;49.50;40.90;;;;;;4962776;29;20043;-73
2022/07/22 13:16:36;;;;;;;3.47;2.85;;;49.10;41.10;;;;;;4962346;28;20107;-73
2022/07/22 13:19:02;;;;;;;4.20;2.90;;;48.60;41.50;;;;;;4962776;29;20042;-73
2022/07/22 13:21:28;;;;;;;4.30;2.63;;;47.40;41.40;;;;;;4956956;29;20027;-74
2022/07/22 13:23:53;;;;;;;3.57;2.83;;;47.20;41.80;;;;;;4945304;29;20462;-73
2022/07/22 13:26:20;;;;;;;5.10;2.60;;;48.10;41.60;;;;;;4942981;29;20321;-72
2022/07/22 13:28:46;;;;;;;4.35;2.72;;;47.90;41.40;;;;;;4943882;29;20045;-73
2022/07/22 13:31:12;;;;;;;3.63;2.78;;;49.50;41.50;;;;;;4942698;29;20078;-74
2022/07/22 13:33:38;;;;;;;4.27;2.87;;;50.50;40.50;;;;;;4944610;29;20091;-73
2022/07/22 13:36:04;;;;;;;3.38;2.70;;;50.70;40.50;;;;;;4944148;29;20435;-73
2022/07/22 13:38:30;;;;;;;4.13;2.90;;;50.20;40.00;;;;;;4945009;29;20024;-72
2022/07/22 13:40:56;;;;;;;;;;;50.20;39.80;;;;;;4949726;29;20032;-72
2022/07/22 13:43:26;;;;;;;3.15;2.60;;;50.60;40.20;;;;;;4951973;29;19954;-74
2022/07/22 13:45:53;;;;;;;3.53;2.55;;;50.20;39.70;;;;;;4954563;29;20070;-73
2022/07/22 13:48:20;;;;;;;;;;;49.50;39.70;;;;;;4954554;29;20243;-74
2022/07/22 13:50:46;;;;;;;3.38;2.55;;;49.80;39.70;;;;;;4945914;29;20243;-73
2022/07/22 13:53:12;;;;;;;3.97;2.40;;;49.40;39.10;;;;;;4946277;29;20225;-73
2022/07/22 13:55:39;;;;;;;3.13;2.30;;;49.70;38.60;;;;;;4952284;29;20051;-73
2022/07/22 13:58:08;;;;;;;2.92;2.45;;;50.00;39.10;;;;;;4941761;28;20314;-78
2022/07/22 14:00:34;;;;;;;5.90;2.63;;;50.20;39.00;;;;;;4946067;29;20054;-69
2022/07/22 14:03:00;;;;;;;2.70;2.50;;;50.70;38.90;;;;;;4957165;29;20043;-72
2022/07/22 14:05:26;;;;;;;3.10;2.80;;;50.80;39.00;;;;;;4952495;29;20182;-72
2022/07/22 14:07:53;;;;;;;3.50;2.80;;;51.70;39.20;;;;;;4960495;29;20094;-71
2022/07/22 14:10:19;;;;;;;3.17;2.70;;;53.00;37.90;;;;;;4942822;29;20234;-71
2022/07/22 14:12:46;;;;;;;;;;;53.40;37.80;;;;;;4962198;29;20031;-73
2022/07/22 14:15:14;;;;;;;4.47;2.53;;;53.70;37.40;;;;;;4949880;29;19913;-72
2022/07/22 14:17:40;;;;;;;3.45;2.70;;;52.50;36.70;;;;;;4958537;29;20043;-72
2022/07/22 14:20:07;;;;;;;4.45;2.80;;;51.90;37.10;;;;;;4955084;29;20026;-72
2022/07/22 14:22:33;;;;;;;4.30;2.85;;;53.00;37.60;;;;;;4962244;29;20035;-73
2022/07/22 14:24:59;;;;;;;;;;;52.90;37.20;;;;;;4962986;29;20328;-73
2022/07/22 14:27:25;;;;;;;3.50;2.63;;;53.00;37.50;;;;;;4963442;28;19906;-73
2022/07/22 14:29:51;;;;;;;2.80;2.45;;;53.00;36.80;;;;;;4966063;29;20225;-72
2022/07/22 14:32:17;;;;;;;;;;;52.40;36.40;;;;;;4965462;29;20325;-73
2022/07/22 14:34:43;;;;;;;3.45;2.30;;;53.20;37.00;;;;;;4966004;29;19906;-75
2022/07/22 14:37:08;;;;;;;4.25;2.65;;;53.10;36.00;;;;;;4945324;29;20040;-72
2022/07/22 14:39:34;;;;;;;3.30;2.38;;;53.20;36.20;;;;;;4961640;29;20336;-72
2022/07/22 14:42:00;;;;;;;3.10;2.47;;;53.70;36.50;;;;;;4965283;29;20083;-72
2022/07/22 14:44:26;;;;;;;2.83;2.45;;;53.30;35.60;;;;;;4965910;29;20237;-71
2022/07/22 14:46:52;;;;;;;3.10;2.60;;;54.40;36.50;;;;;;4962214;28;20225;-82
2022/07/22 14:49:18;;;;;;;3.70;2.38;;;54.00;36.00;;;;;;4948371;29;20030;-74
2022/07/22 14:51:44;;;;;;;3.40;2.58;;;53.30;36.30;;;;;;4965801;29;20031;-74
2022/07/22 14:54:11;;;;;;;4.30;2.72;;;52.90;36.50;;;;;;4963963;29;20143;-72
2022/07/22 14:56:38;;;;;;;4.32;2.88;;;52.80;36.50;;;;;;4965817;29;20043;-72
2022/07/22 14:59:04;;;;;;;3.08;2.63;;;52.60;36.30;;;;;;4964966;29;20023;-73
2022/07/22 15:01:30;;;;;;;3.55;2.70;;;52.00;36.80;;;;;;4964764;28;20039;-72
2022/07/22 15:03:56;;;;;;;3.33;2.67;;;53.40;36.90;;;;;;4965825;29;20046;-73
2022/07/22 15:06:22;;;;;;;4.15;2.60;;;53.90;36.60;;;;;;4965099;29;20320;-73
2022/07/22 15:08:48;;;;;;;3.67;2.60;;;54.00;36.30;;;;;;4944173;29;20075;-72
2022/07/22 15:11:14;;;;;;;3.72;3.00;;;54.00;36.20;;;;;;4964988;29;20089;-73
2022/07/22 15:13:39;;;;;;;4.00;2.70;;;53.70;36.40;;;;;;4965596;29;20310;-72
2022/07/22 15:16:05;;;;;;;3.38;2.35;;;53.30;36.20;;;;;;4964459;28;20277;-71
2022/07/22 15:18:31;;;;;;;5.18;2.78;;;53.60;36.40;;;;;;4965278;29;20031;-73
2022/07/22 15:20:57;;;;;;;4.32;2.80;;;52.80;36.10;;;;;;4965266;29;20313;-73
2022/07/22 15:23:31;;;;;;;5.43;2.88;;;52.00;37.00;;;;;;4964809;29;20042;-72
2022/07/22 15:25:59;;;;;;;3.33;2.90;;;50.70;36.80;;;;;;4961833;29;20098;-71
2022/07/22 15:28:25;;;;;;;3.53;2.80;;;50.70;38.70;;;;;;4963758;29;20074;-71
2022/07/22 15:30:52;;;;;;;3.20;2.70;;;50.90;37.30;;;;;;4963806;28;20035;-72
2022/07/22 15:33:18;;;;;;;3.85;2.70;;;51.40;37.50;;;;;;4964709;29;20027;-72
2022/07/22 15:35:45;;;;;;;3.22;2.47;;;52.00;37.60;;;;;;4963835;29;20317;-72
2022/07/22 15:38:11;;;;;;;4.57;3.17;;;51.60;38.10;;;;;;4963900;28;20035;-72
2022/07/22 15:40:38;;;;;;;3.67;2.70;;;51.00;37.30;;;;;;4960346;29;20030;-71
2022/07/22 15:43:05;;;;;;;3.70;2.97;;;51.80;37.40;;;;;;4955924;29;20043;-70
2022/07/22 15:45:32;;;;;;;4.95;2.92;;;52.70;36.80;;;;;;4963864;28;20035;-71
2022/07/22 15:47:58;;;;;;;6.72;2.83;;;53.10;37.00;;;;;;4961609;29;20039;-71
2022/07/22 15:50:24;;;;;;;7.28;2.85;;;52.00;36.40;;;;;;4964171;29;20055;-72
2022/07/22 15:52:50;;;;;;;4.18;2.60;;;50.90;36.90;;;;;;4964898;29;20082;-72
2022/07/22 15:55:17;;;;;;;3.08;2.78;;;50.90;37.00;;;;;;4963886;29;20025;-72
2022/07/22 16:00:28;;;;;;;3.60;2.75;;;50.00;37.00;;;;;;4963606;28;20043;-71
2022/07/22 16:02:54;;;;;;;3.63;2.47;;;50.10;37.30;;;;;;4963987;29;20126;-71
2022/07/22 16:05:21;;;;;;;3.90;2.80;;;50.10;38.30;;;;;;4964288;29;20309;-72
2022/07/22 16:07:47;;;;;;;3.95;2.95;;;51.00;37.20;;;;;;4964496;29;20031;-71
2022/07/22 16:10:13;;;;;;;4.20;2.72;;;51.00;37.20;;;;;;4959841;29;20054;-73
2022/07/22 16:12:39;;;;;;;3.85;2.90;;;51.30;36.80;;;;;;4963293;29;20039;-72
2022/07/22 16:15:06;;;;;;;5.00;2.97;;;51.30;36.90;;;;;;4963219;28;20291;-74
2022/07/22 16:17:32;;;;;;;3.10;2.60;;;50.30;37.30;;;;;;4964190;29;20093;-73
2022/07/22 16:19:58;;;;;;;4.33;3.23;;;48.30;37.80;;;;;;4963980;29;20043;-71
2022/07/22 16:22:23;;;;;;;4.17;3.37;;;46.50;39.00;;;;;;4963573;29;20071;-72
2022/07/22 16:24:49;;;;;;;3.60;3.13;;;44.70;39.80;;;;;;4963974;29;20031;-72
2022/07/22 16:27:15;;;;;;;5.38;3.38;;;43.80;40.60;;;;;;4963600;29;20039;-74
2022/07/22 16:29:41;;;;;;;6.85;3.35;;;43.60;40.90;;;;;;4963916;29;20062;-70
2022/07/22 16:32:07;;;;;;;4.70;3.15;;;44.20;40.70;;;;;;4963225;28;20365;-71
2022/07/22 16:34:33;;;;;;;5.28;3.40;;;45.30;40.30;;;;;;4964087;29;20046;-71
2022/07/22 16:36:59;;;;;;;3.30;3.00;;;47.40;39.80;;;;;;4964388;29;20296;-74
2022/07/22 16:39:24;;;;;;;3.78;2.83;;;49.00;38.80;;;;;;4963487;29;20058;-71
2022/07/22 16:41:50;;;;;;;4.17;3.07;;;49.10;38.00;;;;;;4964006;29;20066;-73
2022/07/22 16:44:16;;;;;;;3.47;3.17;;;50.30;38.10;;;;;;4945937;29;20191;-72
2022/07/22 16:46:42;;;;;;;3.37;2.80;;;49.90;37.40;;;;;;4960509;28;20040;-72
2022/07/22 16:49:12;;;;;;;3.33;2.60;;;49.60;37.90;;;;;;4963148;28;20037;-73
2022/07/22 16:51:37;;;;;;;4.00;3.10;;;48.20;37.50;;;;;;4962031;29;20131;-71
2022/07/22 16:54:04;;;;;;;3.83;3.42;;;46.90;38.40;;;;;;4964634;29;20039;-72
2022/07/22 16:56:30;;;;;;;;;;;45.40;39.70;;;;;;4964261;29;20043;-74
2022/07/22 16:58:56;;;;;;;5.10;3.53;;;44.90;40.90;;;;;;4930889;29;19965;-74
2022/07/22 17:01:22;;;;;;;5.93;3.60;;;43.30;41.90;;;;;;4963435;28;20376;-72
2022/07/22 17:03:47;;;;;;;5.75;3.60;;;42.10;43.30;;;;;;4964147;29;20043;-73
2022/07/22 17:06:13;;;;;;;3.75;2.92;;;41.40;44.00;;;;;;4963845;29;20057;-72
2022/07/22 17:08:39;;;;;;;4.85;3.85;;;40.60;45.00;;;;;;4943424;29;20031;-74
2022/07/22 17:11:06;;;;;;;3.97;3.33;;;40.20;45.30;;;;;;4955090;29;20034;-70
2022/07/22 17:13:32;;;;;;;6.72;4.05;;;39.90;45.70;;;;;;4963797;29;20114;-71
2022/07/22 17:15:59;;;;;;;5.40;3.60;;;39.80;45.80;;;;;;4962959;28;20183;-69
2022/07/22 17:18:26;;;;;;;4.22;3.47;;;39.90;46.00;;;;;;4945986;29;20103;-71
2022/07/22 17:20:51;;;;;;;5.47;3.60;;;40.20;45.50;;;;;;4958187;29;20027;-72
2022/07/22 17:23:17;;;;;;;5.72;3.50;;;40.10;45.30;;;;;;4962731;29;20328;-69
2022/07/22 17:25:43;;;;;;;5.60;3.55;;;40.30;45.40;;;;;;4963437;29;20027;-68
2022/07/22 17:28:08;;;;;;;5.15;3.75;;;40.60;45.00;;;;;;4962691;29;20057;-70
2022/07/22 17:30:34;;;;;;;5.18;3.90;;;41.60;44.40;;;;;;4963013;28;20031;-72
2022/07/22 17:33:00;;;;;;;6.10;4.03;;;42.60;43.60;;;;;;4945567;29;20145;-70
2022/07/22 17:35:26;;;;;;;5.95;3.30;;;43.50;42.80;;;;;;4962712;29;20058;-70
2022/07/22 17:37:51;;;;;;;5.72;3.70;;;43.90;42.40;;;;;;4962664;29;20159;-70
2022/07/22 17:40:17;;;;;;;7.38;3.50;;;44.90;41.40;;;;;;4962452;29;20071;-70
2022/07/22 17:42:43;;;;;;;4.80;3.10;;;45.30;41.30;;;;;;4957591;29;20031;-70
2022/07/22 17:45:10;;;;;;;8.18;3.67;;;45.50;41.20;;;;;;4962255;28;20034;-73
2022/07/22 17:47:35;;;;;;;3.88;3.08;;;45.20;41.10;;;;;;4963253;29;20124;-70
2022/07/22 17:50:04;;;;;;;5.57;3.83;;;44.30;41.80;;;;;;4962872;29;20035;-71
2022/07/22 17:52:32;;;;;;;4.90;4.40;;;43.90;41.90;;;;;;4954861;29;20047;-69
2022/07/22 17:54:57;;;;;;;5.00;3.20;;;42.10;43.10;;;;;;4948630;29;20031;-71
2022/07/22 17:57:24;;;;;;;5.05;4.18;;;41.20;44.10;;;;;;4961162;29;20123;-72